Time;durP1;ratioP1;P1;durP2;ratioP2;P2;SDS_P1;SDS_P2;PMS_P1;PMS_P2;Temp;Humidity;BMP_temperature;BMP_pressure;BME280_temperature;BME280_humidity;BME280_pressure;Samples;Min_cycle;Max_cycle;Signal;HPM_P1;HPM_P2
2021/01/02 00:00:07;;;;;;;0.30;0.30;;;;;;;3.79;91.56;100796.64;1767787;80;21248;-46
2021/01/02 00:03:00;;;;;;;0.13;0.13;;;;;;;3.79;91.58;100804.22;1765067;80;21187;-48
2021/01/02 00:05:28;;;;;;;0.98;0.60;;;;;;;3.79;91.60;100807.45;1772368;80;21612;-46
2021/01/02 00:08:14;;;;;;;3.80;1.62;;;;;;;3.78;91.61;100817.95;1756302;80;21656;-47
2021/01/02 00:11:29;;;;;;;3.08;0.42;;;;;;;3.77;91.52;100818.48;1764515;80;21111;-46
2021/01/02 00:14:17;;;;;;;0.00;0.00;;;;;;;3.76;91.15;100827.66;1727118;83;21387;-46
2021/01/02 00:17:07;;;;;;;0.10;0.10;;;;;;;3.77;90.97;100829.30;1708903;83;21173;-46
2021/01/02 00:20:10;;;;;;;0.20;0.20;;;;;;;3.80;90.84;100826.13;1862883;76;29119;-45
2021/01/02 00:22:54;;;;;;;0.00;0.00;;;;;;;3.76;90.54;100833.56;1824520;77;21091;-45
2021/01/02 00:25:24;;;;;;;1.10;0.55;;;;;;;3.77;90.37;100833.88;1824649;77;21502;-45
2021/01/02 00:28:16;;;;;;;0.80;0.80;;;;;;;3.76;89.87;100840.32;1824509;78;21098;-45
2021/01/02 00:31:22;;;;;;;0.33;0.33;;;;;;;3.76;89.82;100840.32;1825029;78;21087;-45
2021/01/02 00:34:43;;;;;;;0.50;0.50;;;;;;;3.76;89.38;100846.58;1825086;77;21064;-45
2021/01/02 00:37:28;;;;;;;9.65;0.68;;;;;;;3.75;89.23;100850.31;1822901;78;21071;-46
2021/01/02 00:40:12;;;;;;;0.05;0.05;;;;;;;3.79;88.49;100858.81;1824978;77;21603;-46
2021/01/02 00:42:43;;;;;;;0.40;0.40;;;;;;;3.80;88.31;100860.45;1824864;78;21031;-45
2021/01/02 00:45:26;;;;;;;0.20;0.20;;;;;;;3.80;87.87;100863.98;1824658;77;21528;-46
2021/01/02 00:47:54;;;;;;;0.03;0.03;;;;;;;3.81;87.77;100870.23;1823913;78;21130;-45
2021/01/02 00:50:25;;;;;;;1.85;1.50;;;;;;;3.81;87.66;100872.94;1824705;77;21090;-45
2021/01/02 00:53:19;;;;;;;0.10;0.10;;;;;;;3.80;87.82;100877.50;1825003;78;21115;-44
2021/01/02 00:56:14;;;;;;;0.10;0.10;;;;;;;3.78;87.97;100877.42;1823349;78;21102;-45
2021/01/02 00:59:11;;;;;;;0.35;0.20;;;;;;;3.76;88.04;100881.72;1792017;78;21185;-44
2021/01/02 01:01:48;;;;;;;0.25;0.25;;;;;;;3.76;87.96;100879.02;1789163;78;21147;-45
2021/01/02 01:04:44;;;;;;;1.75;0.80;;;;;;;3.77;87.79;100882.54;1820598;77;21130;-46
2021/01/02 01:07:18;;;;;;;1.98;1.02;;;;;;;3.77;87.91;100889.30;1823707;78;21071;-45
2021/01/02 01:09:50;;;;;;;3.40;1.00;;;;;;;3.74;87.92;100891.92;1824516;77;21114;-44
2021/01/02 01:12:18;;;;;;;0.00;0.00;;;;;;;3.75;87.95;100896.27;1824845;78;21523;-45
2021/01/02 01:14:46;;;;;;;0.08;0.03;;;;;;;3.77;87.69;100898.76;1824707;77;21118;-45
2021/01/02 01:17:21;;;;;;;0.35;0.35;;;;;;;3.79;87.65;100907.48;1824496;78;21146;-45
2021/01/02 01:19:54;;;;;;;0.85;0.55;;;;;;;3.79;87.66;100904.24;1802081;78;21106;-44
2021/01/02 01:22:25;;;;;;;0.20;0.20;;;;;;;3.79;87.63;100905.59;1800658;79;21592;-45
2021/01/02 01:25:06;;;;;;;0.20;0.20;;;;;;;3.78;87.72;100907.16;1755520;81;21125;-45
2021/01/02 01:27:55;;;;;;;0.95;0.40;;;;;;;3.79;87.59;100913.70;1756108;81;21398;-44
2021/01/02 01:30:23;;;;;;;0.10;0.10;;;;;;;3.80;87.60;100919.93;1755619;80;21127;-44
2021/01/02 01:33:01;;;;;;;0.00;0.00;;;;;;;3.80;87.42;100921.28;1757179;80;21134;-46
2021/01/02 01:35:29;;;;;;;0.10;0.10;;;;;;;3.79;87.55;100919.11;1782787;80;21461;-45
2021/01/02 01:37:57;;;;;;;0.10;0.10;;;;;;;3.79;87.55;100920.99;1786329;80;21166;-44
2021/01/02 01:40:27;;;;;;;0.10;0.10;;;;;;;3.79;87.41;100923.16;1786551;78;21650;-45
2021/01/02 01:43:06;;;;;;;1.25;0.40;;;;;;;3.80;87.35;100924.80;1759938;80;21138;-45
2021/01/02 01:45:45;;;;;;;0.30;0.30;;;;;;;3.81;87.26;100922.42;1755523;80;21115;-45
2021/01/02 01:48:16;;;;;;;0.60;0.20;;;;;;;3.82;87.17;100929.47;1755062;80;21153;-45
2021/01/02 01:51:00;;;;;;;0.55;0.55;;;;;;;3.82;87.20;100928.12;1732765;81;21143;-45
2021/01/02 01:53:51;;;;;;;0.03;0.03;;;;;;;3.80;87.27;100928.86;1783023;78;21616;-45
2021/01/02 01:56:32;;;;;;;0.00;0.00;;;;;;;3.79;87.38;100940.73;1786720;80;21094;-45
2021/01/02 01:59:16;;;;;;;1.95;0.50;;;;;;;3.77;87.45;100946.88;1786536;78;22125;-45
2021/01/02 02:01:50;;;;;;;0.00;0.00;;;;;;;3.77;87.59;100952.29;1783136;80;21137;-45
2021/01/02 02:04:47;;;;;;;0.65;0.57;;;;;;;3.76;87.67;100955.20;1779383;78;21106;-47
2021/01/02 02:07:16;;;;;;;0.25;0.25;;;;;;;3.75;87.65;100961.14;1786614;80;21185;-48
2021/01/02 02:09:55;;;;;;;0.20;0.20;;;;;;;3.75;87.74;100965.20;1786257;78;21110;-48
2021/01/02 02:12:22;;;;;;;0.37;0.10;;;;;;;3.75;87.82;100965.73;1754113;80;21568;-47
2021/01/02 02:15:01;;;;;;;0.10;0.10;;;;;;;3.73;87.86;100972.69;1755353;80;21165;-48
2021/01/02 02:17:44;;;;;;;0.37;0.35;;;;;;;3.73;87.86;100981.34;1734563;82;21130;-48
2021/01/02 02:20:18;;;;;;;0.50;0.50;;;;;;;3.72;87.99;100987.27;1771734;80;21496;-48
2021/01/02 02:22:45;;;;;;;0.00;0.00;;;;;;;3.71;88.06;100980.22;1784123;80;21552;-47
2021/01/02 02:25:15;;;;;;;0.23;0.23;;;;;;;3.70;88.16;100979.08;1786534;79;21459;-47
2021/01/02 02:27:44;;;;;;;0.17;0.17;;;;;;;3.69;88.26;100989.07;1786542;80;21118;-45
2021/01/02 02:30:25;;;;;;;0.25;0.25;;;;;;;3.69;88.41;100987.72;1785834;78;21801;-44
2021/01/02 02:32:53;;;;;;;0.08;0.08;;;;;;;3.68;88.48;100995.51;1786217;80;21524;-45
2021/01/02 02:35:21;;;;;;;0.47;0.47;;;;;;;3.65;88.61;100998.66;1786586;78;21138;-46
2021/01/02 02:37:50;;;;;;;0.10;0.10;;;;;;;3.64;88.75;101003.24;1786300;80;21122;-44
2021/01/02 02:40:20;;;;;;;0.00;0.00;;;;;;;3.63;88.80;101000.75;1785848;78;21540;-45
2021/01/02 02:42:58;;;;;;;0.20;0.20;;;;;;;3.64;88.70;101011.35;1786506;80;21150;-45
2021/01/02 02:45:27;;;;;;;0.00;0.00;;;;;;;3.66;88.57;101009.79;1786638;78;21188;-45
2021/01/02 02:47:56;;;;;;;0.00;0.00;;;;;;;3.65;88.25;101021.62;1755916;80;21094;-45
2021/01/02 02:50:26;;;;;;;0.40;0.40;;;;;;;3.65;88.13;101024.33;1755539;80;21145;-45
2021/01/02 02:53:12;;;;;;;0.00;0.00;;;;;;;3.63;87.64;101026.42;1710657;83;21126;-45
2021/01/02 02:55:40;;;;;;;0.55;0.55;;;;;;;3.62;87.36;101032.36;1747016;81;21142;-44
2021/01/02 02:58:07;;;;;;;0.10;0.10;;;;;;;3.58;87.23;101039.23;1757685;81;21138;-44
2021/01/02 03:00:35;;;;;;;0.00;0.00;;;;;;;3.56;86.97;101040.50;1786515;78;21556;-45
2021/01/02 03:03:03;;;;;;;0.17;0.17;;;;;;;3.55;86.96;101051.02;1786620;80;21173;-44
2021/01/02 03:05:32;;;;;;;0.98;0.30;;;;;;;3.51;87.04;101037.63;1740231;82;21121;-45
2021/01/02 03:07:59;;;;;;;0.23;0.23;;;;;;;3.50;87.23;101048.14;1739066;82;21137;-45
2021/01/02 03:10:27;;;;;;;0.62;0.62;;;;;;;3.47;87.41;101045.89;1757512;80;21457;-45
2021/01/02 03:12:55;;;;;;;0.33;0.33;;;;;;;3.46;87.56;101045.03;1764801;81;21126;-45
2021/01/02 03:15:25;;;;;;;0.00;0.00;;;;;;;3.44;87.58;101050.67;1786345;78;21106;-45
2021/01/02 03:17:53;;;;;;;0.20;0.20;;;;;;;3.41;87.71;101052.97;1785848;80;21160;-45
2021/01/02 03:20:21;;;;;;;0.10;0.10;;;;;;;3.37;87.86;101055.28;1783206;78;21094;-44
2021/01/02 03:22:49;;;;;;;1.65;0.55;;;;;;;3.33;87.89;101060.80;1760336;81;21552;-45
2021/01/02 03:25:17;;;;;;;0.80;0.65;;;;;;;3.29;87.89;101066.85;1782224;79;21413;-44
2021/01/02 03:27:44;;;;;;;0.00;0.00;;;;;;;3.24;87.90;101063.48;1783109;80;21406;-46
2021/01/02 03:30:13;;;;;;;0.00;0.00;;;;;;;3.20;87.58;101063.59;1782866;79;21137;-44
2021/01/02 03:32:41;;;;;;;0.53;0.53;;;;;;;3.14;87.39;101067.98;1783070;80;21359;-45
2021/01/02 03:35:10;;;;;;;0.90;0.50;;;;;;;3.09;87.16;101064.25;1782081;79;21124;-44
2021/01/02 03:37:39;;;;;;;0.10;0.10;;;;;;;3.02;85.86;101064.30;1783074;80;21130;-45
2021/01/02 03:40:10;;;;;;;0.20;0.20;;;;;;;3.01;85.17;101067.50;1782790;79;21165;-44
2021/01/02 03:42:42;;;;;;;0.20;0.20;;;;;;;2.99;85.17;101073.66;1782863;80;21640;-45
2021/01/02 03:45:12;;;;;;;0.10;0.10;;;;;;;2.92;84.91;101074.20;1781925;79;21106;-45
2021/01/02 03:47:46;;;;;;;0.13;0.13;;;;;;;2.85;84.82;101074.75;1782793;80;21141;-45
2021/01/02 03:50:14;;;;;;;0.05;0.05;;;;;;;2.81;84.72;101081.61;1782857;79;21584;-44
2021/01/02 03:52:42;;;;;;;0.10;0.10;;;;;;;2.75;84.75;101086.52;1782764;80;21635;-44
2021/01/02 03:55:10;;;;;;;0.45;0.45;;;;;;;2.69;84.90;101090.05;1782257;79;21107;-45
2021/01/02 03:57:38;;;;;;;0.15;0.15;;;;;;;2.63;85.06;101092.25;1782682;80;21524;-45
2021/01/02 04:00:06;;;;;;;0.00;0.00;;;;;;;2.55;85.17;101091.44;1782647;79;21154;-45
2021/01/02 04:02:34;;;;;;;0.10;0.10;;;;;;;2.47;85.35;101098.91;1765051;80;21190;-45
2021/01/02 04:05:05;;;;;;;1.35;0.42;;;;;;;2.42;85.41;101103.58;1782916;79;21177;-44
2021/01/02 04:07:33;;;;;;;0.00;0.00;;;;;;;2.34;85.57;101114.59;1782978;80;20991;-44
2021/01/02 04:10:03;;;;;;;0.30;0.30;;;;;;;2.27;85.80;101113.23;1782786;79;21133;-45
2021/01/02 04:12:31;;;;;;;0.20;0.20;;;;;;;2.21;85.94;101119.48;1782136;80;21105;-44
2021/01/02 04:14:58;;;;;;;0.10;0.10;;;;;;;2.14;86.13;101122.69;1782949;79;21529;-44
2021/01/02 04:17:26;;;;;;;0.10;0.10;;;;;;;2.09;86.29;101121.96;1783019;80;21649;-44
2021/01/02 04:19:54;;;;;;;0.00;0.00;;;;;;;2.03;86.46;101130.89;1784709;79;21130;-44
2021/01/02 04:22:21;;;;;;;0.23;0.23;;;;;;;1.96;86.63;101132.75;1785819;80;21086;-45
2021/01/02 04:24:49;;;;;;;0.10;0.10;;;;;;;1.88;86.84;101139.16;1786569;78;21114;-45
2021/01/02 04:27:16;;;;;;;0.00;0.00;;;;;;;1.82;87.10;101143.19;1786632;80;21458;-44
2021/01/02 04:29:44;;;;;;;0.47;0.15;;;;;;;1.76;87.57;101148.06;1786227;78;21130;-45
2021/01/02 04:32:11;;;;;;;0.00;0.00;;;;;;;1.74;87.86;101158.21;1785770;80;21588;-45
2021/01/02 04:34:38;;;;;;;2.70;0.30;;;;;;;1.68;88.19;101162.03;1786508;78;21117;-45
2021/01/02 04:37:06;;;;;;;0.20;0.20;;;;;;;1.64;88.60;101168.85;1786488;80;21114;-44
2021/01/02 04:39:34;;;;;;;0.20;0.20;;;;;;;1.64;88.94;101164.81;1785953;78;21086;-44
2021/01/02 04:42:02;;;;;;;0.65;0.65;;;;;;;1.62;89.13;101169.56;1785804;80;21149;-44
2021/01/02 04:44:29;;;;;;;0.05;0.05;;;;;;;1.58;89.42;101170.99;1786298;78;21133;-44
2021/01/02 04:46:57;;;;;;;0.00;0.00;;;;;;;1.56;89.83;101173.08;1786500;80;21193;-44
2021/01/02 04:49:24;;;;;;;0.10;0.10;;;;;;;1.53;89.87;101169.42;1761259;80;21401;-45
2021/01/02 04:52:00;;;;;;;0.10;0.10;;;;;;;1.50;90.02;101178.73;1762638;80;21098;-45
2021/01/02 04:54:28;;;;;;;0.40;0.40;;;;;;;1.47;90.32;101185.06;1786528;78;21042;-45
2021/01/02 04:56:55;;;;;;;0.00;0.00;;;;;;;1.44;90.32;101192.20;1762361;80;21121;-45
2021/01/02 04:59:26;;;;;;;0.30;0.30;;;;;;;1.41;90.64;101201.52;1785473;78;21129;-45
2021/01/02 05:01:54;;;;;;;2.08;1.50;;;;;;;1.40;90.62;101201.19;1786448;80;21113;-45
2021/01/02 05:04:22;;;;;;;0.20;0.20;;;;;;;1.39;90.69;101212.17;1786467;80;21110;-44
2021/01/02 05:06:49;;;;;;;0.15;0.15;;;;;;;1.38;90.80;101213.19;1786599;80;21138;-44
2021/01/02 05:09:17;;;;;;;0.05;0.05;;;;;;;1.34;90.73;101210.59;1785373;78;21134;-44
2021/01/02 05:11:44;;;;;;;0.00;0.00;;;;;;;1.32;90.75;101217.52;1786725;80;21572;-44
2021/01/02 05:14:11;;;;;;;0.00;0.00;;;;;;;1.27;90.78;101224.84;1762682;80;21635;-48
2021/01/02 05:16:41;;;;;;;0.75;0.45;;;;;;;1.22;90.78;101230.52;1737134;80;21141;-47
2021/01/02 05:19:14;;;;;;;0.40;0.40;;;;;;;1.15;90.86;101237.72;1788147;78;21146;-46
2021/01/02 05:21:47;;;;;;;0.20;0.20;;;;;;;1.06;90.91;101242.41;1788286;79;20999;-47
2021/01/02 05:24:21;;;;;;;0.10;0.10;;;;;;;1.00;90.95;101237.83;1788035;78;21208;-46
2021/01/02 05:26:56;;;;;;;0.00;0.00;;;;;;;0.92;91.06;101244.72;1787160;80;21154;-47
2021/01/02 05:29:30;;;;;;;0.20;0.20;;;;;;;0.80;91.18;101251.15;1787934;78;21122;-47
2021/01/02 05:32:01;;;;;;;0.00;0.00;;;;;;;0.71;91.31;101260.37;1787763;80;21166;-48
2021/01/02 05:34:31;;;;;;;0.13;0.13;;;;;;;0.60;91.41;101253.16;1787799;78;21454;-47
2021/01/02 05:37:06;;;;;;;0.30;0.30;;;;;;;0.50;91.49;101259.91;1787034;79;21146;-47
2021/01/02 05:39:40;;;;;;;0.05;0.05;;;;;;;0.40;91.61;101262.40;1788008;78;21394;-48
2021/01/02 05:42:07;;;;;;;0.23;0.23;;;;;;;0.27;91.75;101273.00;1791077;80;21161;-45
2021/01/02 05:44:37;;;;;;;0.10;0.10;;;;;;;0.15;91.90;101269.19;1754939;80;21014;-44
2021/01/02 05:47:05;;;;;;;0.10;0.10;;;;;;;0.02;92.04;101279.77;1756742;81;21138;-44
2021/01/02 05:49:40;;;;;;;0.10;0.10;;;;;;;-0.11;92.20;101289.86;1756710;81;21134;-44
2021/01/02 05:52:11;;;;;;;0.00;0.00;;;;;;;-0.22;92.39;101299.24;1756849;81;21154;-44
2021/01/02 05:54:49;;;;;;;0.10;0.10;;;;;;;-0.34;92.65;101294.02;1772934;80;21129;-44
2021/01/02 05:57:28;;;;;;;0.10;0.10;;;;;;;-0.45;92.94;101306.88;1790876;80;21563;-44
2021/01/02 05:59:59;;;;;;;0.00;0.00;;;;;;;-0.58;93.09;101309.91;1754745;81;21149;-44
2021/01/02 06:02:30;;;;;;;0.37;0.37;;;;;;;-0.67;93.40;101321.22;1787922;80;21572;-46
2021/01/02 06:05:10;;;;;;;0.10;0.10;;;;;;;-0.74;93.83;101322.48;1786842;78;21168;-45
2021/01/02 06:07:39;;;;;;;0.00;0.00;;;;;;;-0.78;94.23;101327.06;1787648;80;21127;-45
2021/01/02 06:10:10;;;;;;;0.10;0.10;;;;;;;-0.83;94.55;101328.12;1790666;78;21443;-45
2021/01/02 06:12:39;;;;;;;0.65;0.65;;;;;;;-0.85;94.79;101328.80;1754756;81;21159;-45
2021/01/02 06:15:11;;;;;;;0.10;0.10;;;;;;;-0.90;95.08;101339.56;1787758;78;21625;-45
2021/01/02 06:17:40;;;;;;;0.10;0.10;;;;;;;-0.92;95.36;101340.25;1787254;80;21135;-46
2021/01/02 06:20:12;;;;;;;0.10;0.10;;;;;;;-0.95;95.60;101350.53;1789103;78;21560;-44
2021/01/02 06:25:17;;;;;;;0.00;0.00;;;;;;;-0.95;96.15;101358.06;1818956;76;29069;-44
2021/01/02 06:27:45;;;;;;;0.15;0.15;;;;;;;-1.00;96.41;101357.77;1786147;80;21619;-44
2021/01/02 06:30:17;;;;;;;0.00;0.00;;;;;;;-0.98;96.70;101365.66;1785967;78;21173;-44
2021/01/02 06:32:47;;;;;;;0.00;0.00;;;;;;;-0.98;96.99;101371.84;1785705;78;21010;-45
2021/01/02 06:35:18;;;;;;;0.10;0.10;;;;;;;-0.94;97.29;101365.59;1786250;78;21105;-44
2021/01/02 06:37:54;;;;;;;0.15;0.15;;;;;;;-0.90;97.67;101370.94;1786168;80;21142;-45
2021/01/02 06:40:23;;;;;;;0.23;0.23;;;;;;;-0.83;98.05;101372.40;1785916;78;21091;-45
2021/01/02 06:42:56;;;;;;;0.35;0.35;;;;;;;-0.77;98.23;101377.02;1755120;81;21142;-44
2021/01/02 06:45:41;;;;;;;0.10;0.10;;;;;;;-0.71;98.36;101385.70;1755022;80;21154;-45
2021/01/02 06:48:24;;;;;;;0.53;0.15;;;;;;;-0.67;98.46;101391.88;1755021;81;21137;-45
2021/01/02 06:50:54;;;;;;;;;;;;;;;-0.64;98.59;101387.99;1780341;78;21496;-44
2021/01/02 06:53:25;;;;;;;1.65;0.40;;;;;;;-0.61;98.75;101388.13;1786117;78;20538;-44
2021/01/02 06:56:09;;;;;;;0.10;0.10;;;;;;;-0.59;98.92;101389.62;1786065;80;21137;-43
2021/01/02 06:58:48;;;;;;;0.00;0.00;;;;;;;-0.54;99.11;101391.76;1785770;78;21150;-44
2021/01/02 07:01:21;;;;;;;0.20;0.20;;;;;;;-0.48;99.35;101393.18;1785861;80;21146;-45
2021/01/02 07:03:50;;;;;;;0.25;0.25;;;;;;;-0.39;99.61;101402.52;1786068;80;21122;-44
2021/01/02 07:06:23;;;;;;;0.15;0.15;;;;;;;-0.31;99.88;101405.93;1786264;80;21126;-45
2021/01/02 07:09:01;;;;;;;1.15;0.37;;;;;;;-0.20;100.00;101407.31;1784416;78;21440;-45
2021/01/02 07:11:39;;;;;;;0.10;0.10;;;;;;;-0.07;100.00;101410.20;1785912;80;21015;-46
2021/01/02 07:14:17;;;;;;;0.20;0.20;;;;;;;0.10;100.00;101415.37;1786094;78;21121;-45
2021/01/02 07:17:11;;;;;;;0.35;0.35;;;;;;;0.26;100.00;101416.52;1785948;80;21138;-46
2021/01/02 07:19:42;;;;;;;0.90;0.90;;;;;;;0.43;100.00;101417.97;1785476;78;21102;-46
2021/01/02 07:22:21;;;;;;;0.10;0.10;;;;;;;0.64;100.00;101428.44;1786167;80;21129;-45
2021/01/02 07:25:07;;;;;;;0.10;0.10;;;;;;;0.81;100.00;101427.69;1785836;78;21983;-46
2021/01/02 07:27:39;;;;;;;0.10;0.10;;;;;;;1.00;99.94;101423.03;1785744;80;21106;-46
2021/01/02 07:30:12;;;;;;;0.10;0.10;;;;;;;1.17;99.57;101423.60;1786068;78;21122;-45
2021/01/02 07:32:43;;;;;;;0.23;0.23;;;;;;;1.31;99.16;101429.95;1785996;80;21126;-45
2021/01/02 07:35:12;;;;;;;0.10;0.10;;;;;;;1.43;98.82;101434.27;1785427;78;21134;-46
2021/01/02 07:37:43;;;;;;;0.03;0.03;;;;;;;1.55;98.30;101433.23;1779993;80;21174;-46
2021/01/02 07:40:15;;;;;;;1.87;1.05;;;;;;;1.65;97.80;101445.84;1785343;78;21134;-46
2021/01/02 07:42:55;;;;;;;0.42;0.42;;;;;;;1.74;97.44;101454.63;1785456;80;21098;-46
2021/01/02 07:45:26;;;;;;;1.17;0.25;;;;;;;1.82;96.87;101459.85;1784841;78;21172;-46
2021/01/02 07:47:58;;;;;;;0.33;0.33;;;;;;;1.93;96.27;101457.97;1785195;80;21141;-47
2021/01/02 07:50:28;;;;;;;0.17;0.17;;;;;;;2.06;95.30;101461.27;1785128;79;21912;-46
2021/01/02 07:52:59;;;;;;;0.20;0.20;;;;;;;2.18;94.70;101466.91;1785407;80;21106;-46
2021/01/02 07:55:33;;;;;;;0.10;0.10;;;;;;;2.30;93.82;101465.31;1785099;78;21101;-46
2021/01/02 07:58:01;;;;;;;0.00;0.00;;;;;;;2.41;92.50;101467.45;1785504;80;21488;-46
2021/01/02 08:00:28;;;;;;;0.10;0.10;;;;;;;2.51;92.36;101461.17;1785397;78;21130;-46
2021/01/02 08:03:03;;;;;;;0.65;0.65;;;;;;;2.60;91.72;101463.19;1783804;78;21575;-46
2021/01/02 08:05:31;;;;;;;0.10;0.10;;;;;;;2.63;90.69;101472.75;1779662;80;21147;-46
2021/01/02 08:08:01;;;;;;;0.10;0.10;;;;;;;2.65;90.44;101464.77;1772363;78;21563;-46
2021/01/02 08:10:29;;;;;;;0.53;0.53;;;;;;;2.71;90.32;101471.21;1776512;80;21186;-45
2021/01/02 08:13:00;;;;;;;0.72;0.47;;;;;;;2.79;89.85;101468.32;1783464;80;21573;-46
2021/01/02 08:15:34;;;;;;;0.10;0.10;;;;;;;2.87;89.24;101470.00;1769673;80;21171;-46
2021/01/02 08:18:09;;;;;;;0.05;0.05;;;;;;;2.93;88.35;101468.67;1778044;80;21584;-46
2021/01/02 08:20:37;;;;;;;0.10;0.10;;;;;;;2.95;87.66;101470.66;1785588;80;21125;-48
2021/01/02 08:23:07;;;;;;;0.05;0.05;;;;;;;2.95;87.27;101470.66;1782426;80;21623;-46
2021/01/02 08:25:35;;;;;;;0.20;0.20;;;;;;;2.94;87.32;101475.77;1792415;78;21181;-46
2021/01/02 08:28:03;;;;;;;0.47;0.20;;;;;;;2.95;87.22;101469.84;1757285;81;21198;-46
2021/01/02 08:30:31;;;;;;;0.13;0.13;;;;;;;2.99;86.98;101475.98;1776932;79;21158;-46
2021/01/02 08:33:01;;;;;;;0.60;0.60;;;;;;;3.03;86.61;101479.09;1793312;78;21425;-45
2021/01/02 08:35:39;;;;;;;0.20;0.20;;;;;;;3.07;86.19;101479.53;1790087;79;21154;-47
2021/01/02 08:38:11;;;;;;;0.05;0.05;;;;;;;3.10;86.08;101477.77;1784380;79;21141;-46
2021/01/02 08:40:44;;;;;;;0.90;0.90;;;;;;;3.13;85.82;101482.22;1783777;79;21132;-46
2021/01/02 08:43:26;;;;;;;0.17;0.17;;;;;;;3.19;85.81;101480.56;1794198;79;21146;-46
2021/01/02 08:46:03;;;;;;;0.10;0.10;;;;;;;3.24;85.54;101483.50;1793975;79;21106;-45
2021/01/02 08:48:31;;;;;;;0.00;0.00;;;;;;;3.28;84.61;101479.34;1794187;79;21090;-46
2021/01/02 08:50:58;;;;;;;1.02;0.40;;;;;;;3.29;84.60;101481.52;1794234;79;21176;-46
2021/01/02 08:53:27;;;;;;;0.72;0.72;;;;;;;3.33;84.34;101490.36;1762713;80;21173;-45
2021/01/02 08:55:54;;;;;;;0.28;0.28;;;;;;;3.38;84.13;101489.22;1787036;79;21105;-45
2021/01/02 08:58:35;;;;;;;0.30;0.30;;;;;;;3.42;83.72;101477.49;1793885;79;21107;-46
2021/01/02 09:01:03;;;;;;;0.00;0.00;;;;;;;3.43;83.59;101489.42;1794340;79;21630;-46
2021/01/02 09:03:30;;;;;;;0.42;0.42;;;;;;;3.46;83.40;101500.34;1793784;78;21448;-46
2021/01/02 09:05:58;;;;;;;1.10;0.37;;;;;;;3.48;83.47;101492.86;1792856;79;21193;-46
2021/01/02 09:08:27;;;;;;;0.50;0.50;;;;;;;3.55;83.45;101496.93;1794109;79;21121;-46
2021/01/02 09:10:57;;;;;;;0.00;0.00;;;;;;;3.59;83.09;101492.26;1794209;79;21513;-46
2021/01/02 09:13:27;;;;;;;0.42;0.37;;;;;;;3.63;83.09;101492.66;1793557;78;21126;-47
2021/01/02 09:16:05;;;;;;;0.50;0.50;;;;;;;3.66;83.19;101496.33;1793411;79;21138;-46
2021/01/02 09:18:36;;;;;;;1.27;0.85;;;;;;;3.72;83.08;101492.77;1784436;78;21266;-46
2021/01/02 09:21:15;;;;;;;0.13;0.13;;;;;;;3.78;82.91;101504.62;1793636;79;21159;-45
2021/01/02 09:23:44;;;;;;;0.10;0.10;;;;;;;3.85;82.56;101506.27;1789713;78;21094;-46
2021/01/02 09:26:32;;;;;;;0.40;0.40;;;;;;;3.90;81.92;101503.47;1793805;79;21169;-47
2021/01/02 09:29:14;;;;;;;0.82;0.82;;;;;;;3.91;81.24;101507.83;1753688;81;21155;-47
2021/01/02 09:31:42;;;;;;;0.25;0.25;;;;;;;3.93;81.28;101505.75;1759227;80;21146;-46
2021/01/02 09:34:10;;;;;;;0.05;0.05;;;;;;;3.95;81.14;101514.49;1759367;81;21296;-45
2021/01/02 09:36:37;;;;;;;0.35;0.35;;;;;;;3.98;81.16;101518.13;1759293;81;21438;-47
2021/01/02 09:39:05;;;;;;;0.17;0.17;;;;;;;4.00;80.95;101505.23;1740357;81;21138;-46
2021/01/02 09:41:33;;;;;;;0.17;0.17;;;;;;;4.03;80.63;101509.72;1740139;82;21149;-47
2021/01/02 09:44:00;;;;;;;0.53;0.40;;;;;;;4.05;80.50;101506.25;1758820;81;21462;-45
2021/01/02 09:46:29;;;;;;;0.10;0.10;;;;;;;4.08;80.39;101509.91;1739786;82;21111;-46
2021/01/02 09:48:57;;;;;;;0.10;0.10;;;;;;;4.12;79.67;101512.19;1740085;81;21181;-46
2021/01/02 09:51:30;;;;;;;0.55;0.30;;;;;;;4.11;79.58;101514.59;1740320;82;21749;-47
2021/01/02 09:53:57;;;;;;;1.05;1.05;;;;;;;4.10;79.50;101521.85;1740504;82;21151;-46
2021/01/02 09:56:25;;;;;;;0.00;0.00;;;;;;;4.08;79.37;101522.61;1732933;81;21548;-47
2021/01/02 09:58:53;;;;;;;1.57;0.65;;;;;;;4.06;79.19;101521.45;1740686;81;21177;-46
2021/01/02 10:01:21;;;;;;;0.20;0.20;;;;;;;4.06;79.50;101523.34;1740742;82;21117;-46
2021/01/02 10:03:48;;;;;;;0.57;0.57;;;;;;;4.09;79.34;101525.09;1740571;82;21160;-46
2021/01/02 10:06:16;;;;;;;1.30;1.10;;;;;;;4.10;79.34;101521.85;1740452;82;21125;-46
2021/01/02 10:08:43;;;;;;;0.95;0.95;;;;;;;4.11;79.41;101519.48;1740543;81;20995;-45
2021/01/02 10:11:11;;;;;;;1.52;1.07;;;;;;;4.11;79.58;101526.77;1759189;81;21139;-46
2021/01/02 10:13:38;;;;;;;0.10;0.10;;;;;;;4.15;79.59;101523.41;1759396;81;21159;-45
2021/01/02 10:16:05;;;;;;;1.30;1.30;;;;;;;4.17;79.32;101518.63;1740536;82;21144;-46
2021/01/02 10:18:33;;;;;;;0.57;0.28;;;;;;;4.19;79.27;101524.66;1759368;81;21222;-46
2021/01/02 10:21:00;;;;;;;0.47;0.47;;;;;;;4.20;78.91;101524.13;1741059;81;21170;-46
2021/01/02 10:23:28;;;;;;;0.25;0.25;;;;;;;4.18;78.88;101520.30;1740313;82;21133;-45
2021/01/02 10:25:55;;;;;;;0.40;0.40;;;;;;;4.20;78.81;101529.54;1738142;82;21117;-46
2021/01/02 10:28:23;;;;;;;0.55;0.30;;;;;;;4.20;78.99;101525.48;1737660;82;21129;-46
2021/01/02 10:30:50;;;;;;;0.37;0.37;;;;;;;4.23;79.06;101530.50;1737976;81;21149;-46
2021/01/02 10:33:17;;;;;;;0.28;0.28;;;;;;;4.25;78.97;101523.83;1737759;82;21552;-46
2021/01/02 10:35:45;;;;;;;0.25;0.25;;;;;;;4.24;79.18;101530.80;1737561;82;21189;-45
2021/01/02 10:38:13;;;;;;;0.20;0.20;;;;;;;4.24;79.26;101530.27;1732467;81;21126;-46
2021/01/02 10:40:40;;;;;;;0.42;0.42;;;;;;;4.23;79.28;101540.80;1732501;82;21478;-46
2021/01/02 10:43:08;;;;;;;0.15;0.15;;;;;;;4.21;79.35;101534.75;1730961;82;21133;-45
2021/01/02 10:45:35;;;;;;;2.02;0.75;;;;;;;4.21;79.45;101543.40;1732434;82;21174;-46
2021/01/02 10:48:03;;;;;;;0.42;0.30;;;;;;;4.18;79.62;101536.53;1732574;82;21133;-46
2021/01/02 10:50:30;;;;;;;0.10;0.10;;;;;;;4.17;80.07;101541.62;1732428;82;21162;-47
2021/01/02 10:52:58;;;;;;;0.37;0.37;;;;;;;4.18;79.93;101543.80;1731905;82;21176;-46
2021/01/02 10:55:26;;;;;;;0.00;0.00;;;;;;;4.16;79.98;101535.91;1722718;82;21151;-47
2021/01/02 10:57:53;;;;;;;1.47;1.10;;;;;;;4.16;80.18;101544.02;1729489;81;21153;-48
2021/01/02 11:00:23;;;;;;;0.10;0.10;;;;;;;4.16;80.11;101537.27;1732388;81;21161;-46
2021/01/02 11:02:50;;;;;;;0.93;0.50;;;;;;;4.15;80.20;101539.64;1732372;81;21108;-46
2021/01/02 11:05:18;;;;;;;0.82;0.82;;;;;;;4.15;80.08;101541.52;1727705;82;21177;-46
2021/01/02 11:07:45;;;;;;;0.20;0.20;;;;;;;4.13;80.04;101537.69;1723320;82;21173;-46
2021/01/02 11:10:13;;;;;;;1.27;0.42;;;;;;;4.12;80.19;101543.30;1713573;82;21201;-46
2021/01/02 11:12:42;;;;;;;0.10;0.10;;;;;;;4.09;80.55;101541.31;1732078;82;21109;-46
2021/01/02 11:15:11;;;;;;;0.40;0.40;;;;;;;4.14;80.63;101542.05;1731965;82;21163;-46
2021/01/02 11:17:40;;;;;;;0.55;0.20;;;;;;;4.17;80.76;101544.32;1731883;82;21161;-46
2021/01/02 11:20:09;;;;;;;4.10;1.00;;;;;;;4.21;80.56;101545.58;1731706;81;21547;-46
2021/01/02 11:22:37;;;;;;;2.62;0.70;;;;;;;4.21;80.50;101546.93;1731959;82;21167;-46
2021/01/02 11:25:06;;;;;;;0.50;0.15;;;;;;;4.21;80.47;101549.63;1731836;82;21110;-46
2021/01/02 11:27:33;;;;;;;2.65;0.88;;;;;;;4.20;80.41;101552.02;1732326;82;21202;-45
2021/01/02 11:30:01;;;;;;;0.10;0.10;;;;;;;4.20;80.34;101563.36;1731501;81;21453;-46
2021/01/02 11:32:29;;;;;;;1.55;1.25;;;;;;;4.18;80.44;101564.94;1732242;82;21149;-46
2021/01/02 11:34:56;;;;;;;0.35;0.35;;;;;;;4.19;80.55;101569.30;1732018;81;21667;-46
2021/01/02 11:37:23;;;;;;;1.00;0.90;;;;;;;4.18;80.33;101569.00;1732064;82;21143;-46
2021/01/02 11:39:50;;;;;;;0.40;0.40;;;;;;;4.16;80.40;101568.38;1732451;82;21103;-46
2021/01/02 11:42:18;;;;;;;0.33;0.33;;;;;;;4.16;80.68;101572.43;1732597;82;21122;-46
2021/01/02 11:44:45;;;;;;;0.33;0.30;;;;;;;4.18;80.72;101578.47;1732568;82;21656;-47
2021/01/02 11:47:12;;;;;;;4.28;0.30;;;;;;;4.21;80.79;101572.63;1732698;82;21023;-46
2021/01/02 11:49:40;;;;;;;1.00;0.47;;;;;;;4.22;80.73;101579.69;1732284;82;21183;-47
2021/01/02 11:52:07;;;;;;;1.10;0.78;;;;;;;4.23;80.91;101576.49;1732742;82;21117;-46
2021/01/02 11:54:35;;;;;;;0.08;0.08;;;;;;;4.23;80.83;101580.02;1732602;81;21121;-46
2021/01/02 11:57:04;;;;;;;0.75;0.75;;;;;;;4.24;80.78;101586.27;1732210;82;21627;-45